Time;durP1;ratioP1;P1;durP2;ratioP2;P2;SDS_P1;SDS_P2;PMS_P1;PMS_P2;Temp;Humidity;BMP_temperature;BMP_pressure;BME280_temperature;BME280_humidity;BME280_pressure;Samples;Min_cycle;Max_cycle;Signal;HPM_P1;HPM_P2
2023/01/19 00:02:40;;;;;;;;;;;;;;;;;;;;;
2023/01/19 00:04:52;;;;;;;15.50;3.40;;;;;;;17.09;69.32;98321.66;4788065;29;20209;-93
2023/01/19 00:07:48;;;;;;;;;;;;;;;;;;;;;
2023/01/19 00:10:38;;;;;;;13.07;2.40;;;;;;;17.06;69.34;98324.56;4974278;28;20191;-92
2023/01/19 00:27:02;;;;;;;16.77;3.90;;;;;;;17.01;69.62;98351.47;4934997;29;20290;-92
2023/01/19 00:33:32;;;;;;;22.50;3.67;;;;;;;16.99;69.66;98350.78;4897697;29;20191;-93
2023/01/19 00:43:44;;;;;;;27.77;3.57;;;;;;;16.83;70.34;98361.09;4828405;29;20239;-93
2023/01/19 00:54:09;;;;;;;21.50;4.13;;;;;;;17.02;68.99;98365.56;4786831;30;20214;-93
2023/01/19 01:10:54;;;;;;;19.57;3.53;;;;;;;17.15;68.14;98376.72;4818986;29;20206;-93
2023/01/19 01:27:18;;;;;;;14.57;3.60;;;;;;;16.99;68.37;98387.03;4826394;29;20265;-93
2023/01/19 01:29:52;;;;;;;22.20;4.27;;;;;;;17.05;67.76;98389.13;4825884;29;20201;-92
2023/01/19 01:50:35;;;;;;;22.17;2.50;;;;;;;17.40;64.89;98375.31;4919028;29;20188;-92
2023/01/19 01:56:28;;;;;;;11.43;2.70;;;;;;;17.12;66.04;98367.22;5069069;23;20205;-93
2023/01/19 01:58:54;;;;;;;18.40;3.23;;;;;;;17.23;65.79;98363.59;5116866;28;20603;-93
2023/01/19 02:04:04;;;;;;;21.60;3.50;;;;;;;17.24;65.49;98383.81;5117697;28;20215;-92
2023/01/19 02:06:30;;;;;;;15.57;2.97;;;;;;;17.25;65.73;98382.00;5099029;28;20176;-92
2023/01/19 02:14:44;;;;;;;19.23;3.10;;;;;;;17.04;66.48;98392.72;5117342;28;20210;-91
2023/01/19 02:17:09;;;;;;;23.63;5.33;;;;;;;17.08;66.52;98389.69;5116738;28;20168;-91
2023/01/19 02:19:47;;;;;;;13.40;2.43;;;;;;;16.93;67.37;98400.78;5116931;28;20226;-92
2023/01/19 02:22:57;;;;;;;10.57;2.50;;;;;;;16.91;67.37;98394.81;5116976;28;20155;-92
2023/01/19 02:25:32;;;;;;;18.27;3.30;;;;;;;17.05;66.72;98381.19;5065362;28;20586;-92
2023/01/19 02:32:10;;;;;;;26.13;3.73;;;;;;;17.12;66.10;98376.97;5015619;28;20206;-92
2023/01/19 02:48:54;;;;;;;;;;;;;;;;;;;;;
2023/01/19 02:51:25;;;;;;;18.80;3.63;;;;;;;16.52;68.04;98360.38;4916723;29;20581;-91
2023/01/19 02:54:38;;;;;;;;;;;;;;;;;;;;;
2023/01/19 02:57:32;;;;;;;31.57;4.17;;;;;;;16.45;68.02;98364.50;4965113;28;20205;-93
2023/01/19 03:00:33;;;;;;;15.73;2.87;;;;;;;16.35;68.52;98370.75;5033901;28;20348;-93
2023/01/19 03:03:14;;;;;;;21.57;2.90;;;;;;;16.43;68.26;98374.38;5017592;28;20198;-94
2023/01/19 03:05:53;;;;;;;20.87;4.50;;;;;;;16.42;68.23;98377.16;5017108;28;20187;-93
2023/01/19 03:08:37;;;;;;;32.27;4.70;;;;;;;16.56;67.98;98390.03;5036599;28;20187;-92
2023/01/19 03:11:09;;;;;;;29.03;3.53;;;;;;;16.57;68.08;98402.28;5098076;28;20194;-92
2023/01/19 03:14:18;;;;;;;17.47;3.47;;;;;;;16.50;68.06;98395.84;5115675;28;20247;-92
2023/01/19 03:16:54;;;;;;;27.10;4.07;;;;;;;16.56;68.26;98396.16;5098009;28;20191;-92
2023/01/19 03:19:32;;;;;;;26.50;3.23;;;;;;;16.48;68.70;98395.97;5115483;28;20636;-95
2023/01/19 03:22:10;;;;;;;9.77;2.37;;;;;;;16.53;68.36;98395.59;5115821;28;20160;-94
2023/01/19 03:24:42;;;;;;;24.20;4.27;;;;;;;16.52;68.54;98399.19;5097534;28;20204;-91
2023/01/19 03:27:19;;;;;;;19.93;3.97;;;;;;;16.67;67.82;98397.00;5115875;28;20707;-93
2023/01/19 03:30:44;;;;;;;17.40;2.80;;;;;;;16.53;67.94;98388.47;5097971;28;20155;-92
2023/01/19 03:33:35;;;;;;;20.00;3.53;;;;;;;16.53;68.13;98383.19;5084683;28;20188;-90
2023/01/19 03:36:50;;;;;;;20.63;3.27;;;;;;;16.58;68.13;98388.94;5104178;28;20184;-93
2023/01/19 03:39:54;;;;;;;;;;;;;;;;;;;;;
2023/01/19 03:42:33;;;;;;;21.13;4.53;;;;;;;16.71;67.57;98385.19;5032514;28;20194;-95
2023/01/19 03:45:02;;;;;;;16.03;4.10;;;;;;;16.76;67.16;98375.88;5033714;28;20166;-93
2023/01/19 03:47:47;;;;;;;15.30;2.83;;;;;;;16.63;67.84;98379.75;5091022;28;20183;-94
2023/01/19 03:50:49;;;;;;;26.43;4.03;;;;;;;16.64;67.70;98384.06;5097091;28;20160;-93
2023/01/19 03:53:16;;;;;;;18.37;3.93;;;;;;;16.72;67.28;98378.94;5097449;28;20163;-94
2023/01/19 03:55:49;;;;;;;20.33;3.47;;;;;;;16.51;68.02;98387.75;5096986;28;20202;-92
2023/01/19 03:58:14;;;;;;;24.97;3.73;;;;;;;16.44;68.29;98377.84;5096742;28;20193;-92
2023/01/19 04:00:43;;;;;;;18.33;3.77;;;;;;;16.38;68.34;98371.28;5096634;28;20195;-94
2023/01/19 04:03:14;;;;;;;23.20;3.90;;;;;;;16.45;68.39;98388.31;5114568;28;20199;-94
2023/01/19 04:05:44;;;;;;;25.50;4.53;;;;;;;16.36;68.88;98391.75;5096762;28;20183;-94
2023/01/19 04:08:10;;;;;;;21.03;4.30;;;;;;;16.32;69.21;98386.88;5115192;28;20222;-95
2023/01/19 04:10:36;;;;;;;23.77;3.97;;;;;;;16.34;69.50;98388.41;5096668;28;20180;-94
2023/01/19 04:13:02;;;;;;;15.83;3.23;;;;;;;16.41;68.74;98389.53;5096589;28;20231;-92
2023/01/19 04:15:31;;;;;;;17.60;3.47;;;;;;;16.41;69.02;98397.47;5097029;28;20263;-95
2023/01/19 04:18:04;;;;;;;24.87;4.73;;;;;;;16.38;69.06;98403.03;5115001;28;20621;-94
2023/01/19 04:20:29;;;;;;;20.60;4.80;;;;;;;16.28;69.34;98404.81;5096585;28;20295;-94
2023/01/19 04:22:59;;;;;;;31.03;4.17;;;;;;;16.45;68.62;98414.75;5114608;28;20195;-91
2023/01/19 04:25:24;;;;;;;20.97;3.90;;;;;;;16.45;68.57;98422.69;5097213;28;20526;-93
2023/01/19 04:27:54;;;;;;;19.10;4.13;;;;;;;16.38;69.04;98410.97;5096400;28;20175;-91
2023/01/19 04:30:19;;;;;;;17.33;2.63;;;;;;;16.40;69.06;98418.78;5096076;28;20244;-93
2023/01/19 04:32:48;;;;;;;32.37;3.30;;;;;;;16.52;68.19;98421.22;5114502;28;20175;-93
2023/01/19 04:35:14;;;;;;;21.30;4.20;;;;;;;16.54;68.03;98429.84;5113653;28;20195;-92
2023/01/19 04:37:39;;;;;;;18.30;2.80;;;;;;;16.53;68.14;98428.16;5114033;28;20168;-93
2023/01/19 04:40:05;;;;;;;24.73;3.33;;;;;;;16.46;68.84;98436.75;5113900;28;20199;-94
2023/01/19 04:42:33;;;;;;;23.13;5.37;;;;;;;16.40;68.84;98430.19;5113098;28;20182;-94
2023/01/19 04:44:59;;;;;;;20.80;4.00;;;;;;;16.59;68.03;98432.91;5096273;28;20595;-93
2023/01/19 04:47:26;;;;;;;18.60;4.27;;;;;;;16.59;68.14;98438.22;5113941;28;20203;-92
2023/01/19 04:49:52;;;;;;;33.87;4.97;;;;;;;16.58;67.84;98447.16;5113781;28;20186;-92
2023/01/19 04:52:22;;;;;;;21.27;3.60;;;;;;;16.53;67.92;98444.03;5114137;28;20628;-93
2023/01/19 04:54:52;;;;;;;25.53;4.37;;;;;;;16.69;67.41;98443.56;5101704;28;20196;-90
2023/01/19 04:57:17;;;;;;;18.57;5.10;;;;;;;16.53;68.17;98445.88;5102462;28;20308;-93
2023/01/19 04:59:56;;;;;;;;;;;;;;;;;;;;;
2023/01/19 05:02:27;;;;;;;31.90;5.40;;;;;;;16.67;67.61;98445.47;5121361;28;20473;-95
2023/01/19 05:05:01;;;;;;;19.60;4.57;;;;;;;16.52;67.97;98442.38;5120996;28;20178;-94
2023/01/19 05:07:39;;;;;;;;;;;;;;;;;;;;;
2023/01/19 05:10:19;;;;;;;;;;;;;;;;;;;;;
2023/01/19 05:12:45;;;;;;;21.93;3.63;;;;;;;16.63;67.63;98448.53;5120654;28;20176;-94
2023/01/19 05:15:10;;;;;;;19.27;2.93;;;;;;;16.49;67.63;98432.03;5102657;28;20706;-92
2023/01/19 05:17:36;;;;;;;26.07;3.70;;;;;;;16.46;68.07;98449.97;5102451;28;20645;-93
2023/01/19 05:20:07;;;;;;;15.00;3.83;;;;;;;16.67;67.34;98445.47;5102737;28;20616;-91
2023/01/19 05:22:32;;;;;;;25.93;3.53;;;;;;;16.49;67.38;98442.63;5102364;28;20198;-91
2023/01/19 05:24:58;;;;;;;20.73;4.30;;;;;;;16.40;68.18;98438.09;5120678;28;20587;-92
2023/01/19 05:27:23;;;;;;;29.27;4.50;;;;;;;16.36;68.18;98452.59;5102990;28;20602;-94
2023/01/19 05:29:49;;;;;;;16.20;3.73;;;;;;;16.56;67.43;98453.53;5102967;28;20183;-95
2023/01/19 05:32:14;;;;;;;21.50;3.67;;;;;;;16.50;67.18;98449.59;5102544;28;20183;-94
2023/01/19 05:35:03;;;;;;;;;;;;;;;;;;;;;
2023/01/19 05:37:36;;;;;;;33.37;4.20;;;;;;;16.69;66.73;98455.94;5121794;28;20167;-94
2023/01/19 05:40:02;;;;;;;15.37;4.10;;;;;;;16.62;66.61;98454.78;5121097;28;20179;-93
2023/01/19 05:42:28;;;;;;;15.90;3.20;;;;;;;16.57;66.59;98458.69;5103152;28;20176;-94
2023/01/19 05:44:59;;;;;;;17.37;3.27;;;;;;;16.66;66.62;98453.56;5120418;28;20183;-95
2023/01/19 05:47:24;;;;;;;19.07;3.97;;;;;;;16.72;66.24;98450.38;5102775;28;20176;-94
2023/01/19 05:49:50;;;;;;;25.27;4.43;;;;;;;16.46;67.27;98447.31;5120772;28;20226;-90
2023/01/19 05:52:15;;;;;;;17.03;3.70;;;;;;;16.47;67.83;98455.13;5120402;28;20176;-95
2023/01/19 05:54:44;;;;;;;17.03;4.00;;;;;;;16.55;67.25;98455.34;5102237;28;20178;-95
2023/01/19 05:57:10;;;;;;;17.93;4.13;;;;;;;16.47;67.41;98454.31;5101870;28;20198;-93
2023/01/19 05:59:36;;;;;;;19.50;3.50;;;;;;;16.33;67.64;98463.44;5120580;28;20612;-89
2023/01/19 06:02:04;;;;;;;21.23;4.27;;;;;;;16.45;67.26;98454.44;5102740;28;20168;-93
2023/01/19 06:04:29;;;;;;;16.07;3.03;;;;;;;16.45;67.34;98462.38;5119603;28;20587;-91
2023/01/19 06:06:55;;;;;;;19.00;3.90;;;;;;;16.62;66.49;98474.16;5098599;28;20282;-91
2023/01/19 06:09:23;;;;;;;14.97;1.80;;;;;;;16.59;66.01;98469.97;5117180;28;20182;-95
2023/01/19 06:11:54;;;;;;;16.57;3.10;;;;;;;16.67;66.04;98477.22;5099116;28;20312;-93
2023/01/19 06:14:25;;;;;;;22.53;3.77;;;;;;;16.66;65.94;98477.38;5098741;28;20214;-95
2023/01/19 06:17:00;;;;;;;25.17;5.50;;;;;;;16.64;65.52;98479.31;5099350;28;20216;-95
2023/01/19 06:19:33;;;;;;;26.93;5.77;;;;;;;16.66;65.72;98493.25;5098925;28;20191;-94
2023/01/19 06:21:59;;;;;;;29.10;4.60;;;;;;;16.73;65.09;98482.00;5098666;28;20186;-94
2023/01/19 06:24:28;;;;;;;22.67;4.03;;;;;;;16.67;64.82;98482.53;5118407;28;20195;-96
2023/01/19 06:27:10;;;;;;;;;;;;;;;;;;;;;
2023/01/19 06:29:35;;;;;;;12.20;2.80;;;;;;;16.59;65.34;98477.06;5117843;28;20154;-91
2023/01/19 06:32:04;;;;;;;29.77;4.30;;;;;;;16.68;64.88;98488.66;5116186;28;20251;-92
2023/01/19 06:34:42;;;;;;;27.03;4.87;;;;;;;16.73;64.29;98482.00;5116884;28;20172;-92
2023/01/19 06:37:10;;;;;;;24.90;2.67;;;;;;;16.62;64.83;98487.38;5097779;28;20183;-92
2023/01/19 06:39:36;;;;;;;31.70;4.53;;;;;;;16.80;64.63;98495.50;5098781;28;20216;-93
2023/01/19 06:42:04;;;;;;;31.33;4.33;;;;;;;16.72;64.78;98487.44;5116481;28;20179;-91
2023/01/19 06:44:30;;;;;;;21.30;3.80;;;;;;;16.79;64.61;98494.69;5098510;28;20590;-91
2023/01/19 06:46:58;;;;;;;31.17;4.23;;;;;;;16.94;64.02;98500.44;5116262;28;20182;-91
2023/01/19 06:49:24;;;;;;;30.23;5.03;;;;;;;16.94;64.68;98506.56;5098219;28;20175;-92
2023/01/19 06:51:49;;;;;;;20.60;3.33;;;;;;;16.99;64.46;98499.06;5116730;28;20171;-93
2023/01/19 06:54:15;;;;;;;20.50;3.57;;;;;;;16.93;64.38;98493.44;5116055;28;20196;-93
2023/01/19 06:56:40;;;;;;;16.47;3.10;;;;;;;17.18;63.82;98514.16;5098192;28;20187;-93
2023/01/19 06:59:07;;;;;;;29.33;4.80;;;;;;;17.05;64.39;98509.13;5115842;28;20171;-91
2023/01/19 07:01:32;;;;;;;21.30;3.30;;;;;;;17.14;64.33;98513.56;5097934;28;20518;-94
2023/01/19 07:03:58;;;;;;;19.90;3.80;;;;;;;17.33;63.70;98512.75;5097659;28;20257;-92
2023/01/19 07:06:24;;;;;;;20.17;3.90;;;;;;;17.33;63.25;98523.38;5116008;28;20197;-91
2023/01/19 07:08:56;;;;;;;23.70;3.10;;;;;;;17.30;63.35;98523.63;5097720;28;20181;-93
2023/01/19 07:11:22;;;;;;;12.53;3.03;;;;;;;17.49;62.67;98528.97;5115974;28;20195;-92
2023/01/19 07:13:50;;;;;;;14.00;2.93;;;;;;;17.43;62.66;98518.91;5097602;28;20655;-90
2023/01/19 07:16:16;;;;;;;16.13;3.10;;;;;;;17.40;62.85;98524.47;5115486;28;20171;-91
2023/01/19 07:18:42;;;;;;;14.70;2.17;;;;;;;17.40;62.93;98529.78;5097272;28;20166;-91
2023/01/19 07:21:10;;;;;;;26.77;3.17;;;;;;;17.57;62.65;98515.88;5097200;28;20211;-94
2023/01/19 07:23:36;;;;;;;23.20;4.17;;;;;;;17.43;63.11;98528.66;5115185;28;20628;-91
2023/01/19 07:26:02;;;;;;;20.17;3.60;;;;;;;17.38;63.75;98529.09;5097257;28;20169;-92
2023/01/19 07:28:29;;;;;;;29.30;3.53;;;;;;;17.57;63.23;98520.34;5097220;28;20172;-91
2023/01/19 07:30:56;;;;;;;18.07;3.63;;;;;;;17.59;63.37;98521.88;5115448;28;20155;-93
2023/01/19 07:33:28;;;;;;;25.53;3.13;;;;;;;17.65;62.89;98520.50;5115165;28;20223;-92
2023/01/19 07:35:56;;;;;;;13.03;2.33;;;;;;;17.65;62.59;98510.72;5093583;28;20574;-94
2023/01/19 07:38:27;;;;;;;20.93;3.70;;;;;;;17.91;62.24;98503.03;5114976;28;20172;-92
2023/01/19 07:41:27;;;;;;;17.57;3.03;;;;;;;17.96;61.66;98502.59;5097046;28;20211;-93
2023/01/19 07:43:52;;;;;;;15.63;3.23;;;;;;;17.86;61.30;98493.81;5114002;28;20202;-90
2023/01/19 07:46:20;;;;;;;23.53;3.00;;;;;;;17.83;61.47;98499.41;5115025;28;20168;-93
2023/01/19 07:48:49;;;;;;;17.60;2.90;;;;;;;17.86;61.96;98484.06;5097058;28;20528;-93
2023/01/19 07:51:17;;;;;;;12.90;3.30;;;;;;;17.98;61.04;98477.59;5114537;28;20247;-92
2023/01/19 07:53:44;;;;;;;14.47;3.47;;;;;;;18.01;61.07;98487.09;5114604;28;20195;-92
2023/01/19 07:56:13;;;;;;;17.97;2.53;;;;;;;18.06;60.35;98479.53;5096551;28;20582;-93
2023/01/19 07:58:39;;;;;;;17.10;3.57;;;;;;;18.04;60.90;98494.75;5096764;28;20179;-93
2023/01/19 08:01:13;;;;;;;20.30;3.37;;;;;;;18.22;60.67;98480.63;5114535;28;20229;-94
2023/01/19 08:03:39;;;;;;;12.03;2.80;;;;;;;18.26;60.19;98487.28;5113649;28;20170;-92
2023/01/19 08:06:12;;;;;;;27.23;3.17;;;;;;;18.40;59.79;98488.66;5113739;28;20181;-94
2023/01/19 08:08:38;;;;;;;8.73;2.60;;;;;;;18.54;59.24;98496.19;5115231;28;20174;-92
2023/01/19 08:11:04;;;;;;;22.80;4.20;;;;;;;18.50;59.76;98501.94;5114543;28;20167;-93
2023/01/19 08:13:29;;;;;;;15.23;3.73;;;;;;;18.75;59.38;98504.75;5096544;28;20183;-93
2023/01/19 08:15:55;;;;;;;18.03;3.00;;;;;;;18.78;58.79;98507.13;5097250;28;20202;-93
2023/01/19 08:18:23;;;;;;;28.87;3.13;;;;;;;18.66;58.35;98507.44;5114594;28;20255;-92
2023/01/19 08:20:59;;;;;;;;;;;;;;;;;;;;;
2023/01/19 08:23:30;;;;;;;24.83;3.43;;;;;;;18.93;59.20;98507.44;5115092;28;20158;-95
2023/01/19 08:25:56;;;;;;;10.13;2.20;;;;;;;18.93;58.72;98516.25;5096432;28;20167;-91
2023/01/19 08:28:24;;;;;;;15.00;2.53;;;;;;;18.90;57.95;98513.91;5114066;28;20246;-92
2023/01/19 08:30:53;;;;;;;8.30;2.67;;;;;;;18.55;59.68;98511.13;5114121;28;20701;-90
2023/01/19 08:33:24;;;;;;;13.03;2.07;;;;;;;18.54;59.57;98506.81;5114237;28;20242;-89
2023/01/19 08:35:52;;;;;;;11.10;3.10;;;;;;;18.47;59.91;98516.34;5096291;28;20628;-91
2023/01/19 08:38:20;;;;;;;12.27;1.70;;;;;;;18.49;59.68;98514.38;5096565;28;20179;-92
2023/01/19 08:40:52;;;;;;;15.33;2.73;;;;;;;18.54;59.85;98504.16;5114153;28;20192;-92
2023/01/19 08:43:17;;;;;;;19.40;2.03;;;;;;;18.63;59.87;98508.56;5096287;28;20172;-93
2023/01/19 08:45:48;;;;;;;17.80;2.83;;;;;;;18.66;60.31;98502.97;5097618;28;20179;-91
2023/01/19 08:48:20;;;;;;;18.20;2.70;;;;;;;18.50;60.02;98505.41;5096391;28;20175;-92
2023/01/19 08:50:50;;;;;;;12.67;2.70;;;;;;;18.51;60.06;98515.06;5112585;28;20148;-93
2023/01/19 08:53:16;;;;;;;12.60;2.27;;;;;;;18.46;60.11;98504.00;5095321;28;20232;-93
2023/01/19 08:55:42;;;;;;;10.67;2.33;;;;;;;18.50;59.27;98505.41;5113545;28;20176;-91
2023/01/19 08:58:10;;;;;;;9.50;1.50;;;;;;;18.48;59.41;98512.69;5114172;28;20183;-94
2023/01/19 09:00:37;;;;;;;11.57;2.17;;;;;;;18.20;60.33;98514.41;5113855;28;20187;-93
2023/01/19 09:03:05;;;;;;;15.03;2.80;;;;;;;18.29;60.76;98508.25;5096424;28;20171;-94
2023/01/19 09:05:34;;;;;;;12.57;2.67;;;;;;;18.37;60.81;98496.91;5113841;28;20172;-93
2023/01/19 09:08:11;;;;;;;21.97;2.90;;;;;;;18.59;59.21;98499.22;5095890;28;20602;-92
2023/01/19 09:10:38;;;;;;;13.67;2.20;;;;;;;18.57;59.04;98517.13;5096325;28;20176;-92
2023/01/19 09:13:09;;;;;;;7.43;1.77;;;;;;;18.52;59.79;98503.47;5113785;28;20195;-91
2023/01/19 09:15:36;;;;;;;12.93;2.60;;;;;;;18.52;60.15;98511.44;5114272;28;20232;-92
2023/01/19 09:18:12;;;;;;;10.63;2.13;;;;;;;18.50;59.91;98516.03;5095751;28;20172;-90
2023/01/19 09:20:56;;;;;;;8.50;1.53;;;;;;;18.48;59.37;98509.19;5095850;28;20647;-92
2023/01/19 09:23:27;;;;;;;28.00;2.33;;;;;;;18.61;59.37;98512.34;5095930;28;20244;-92
2023/01/19 09:26:03;;;;;;;12.60;2.67;;;;;;;18.90;58.50;98505.94;5095750;28;20172;-91
2023/01/19 09:28:29;;;;;;;13.07;2.23;;;;;;;18.84;57.04;98503.03;5113758;28;20160;-91
2023/01/19 09:30:58;;;;;;;10.43;1.67;;;;;;;18.80;58.05;98505.16;5113566;28;20171;-89
2023/01/19 09:33:23;;;;;;;17.97;2.80;;;;;;;18.96;58.40;98500.03;5095352;28;20175;-91
2023/01/19 09:35:57;;;;;;;12.23;2.50;;;;;;;18.97;56.68;98493.72;5095532;28;20184;-92
2023/01/19 09:38:24;;;;;;;13.37;2.77;;;;;;;19.04;56.65;98488.66;5113448;28;20230;-90
2023/01/19 09:40:58;;;;;;;14.30;2.30;;;;;;;18.99;56.54;98488.28;5096694;28;20207;-92
2023/01/19 09:43:43;;;;;;;23.47;2.53;;;;;;;19.01;56.92;98473.03;5117256;28;20635;-92
2023/01/19 09:46:20;;;;;;;13.57;1.90;;;;;;;19.01;56.32;98476.50;5099084;28;20175;-92
2023/01/19 09:48:50;;;;;;;9.70;1.53;;;;;;;18.91;57.62;98472.25;5117692;28;20605;-90
2023/01/19 09:51:38;;;;;;;8.20;1.83;;;;;;;19.09;56.12;98485.56;5098470;28;20168;-91
2023/01/19 09:54:11;;;;;;;13.87;2.30;;;;;;;19.03;55.79;98482.50;5116092;28;20180;-94
2023/01/19 09:56:41;;;;;;;11.60;2.37;;;;;;;19.21;54.96;98485.19;5117050;28;20215;-94
2023/01/19 09:59:28;;;;;;;13.50;2.00;;;;;;;19.17;54.81;98488.28;5117353;28;20228;-91
2023/01/19 10:02:19;;;;;;;9.83;1.80;;;;;;;18.99;55.21;98481.16;5113988;28;20196;-92
2023/01/19 10:05:01;;;;;;;12.43;2.40;;;;;;;19.28;55.77;98490.75;5117192;28;20248;-91
2023/01/19 10:07:52;;;;;;;12.47;2.43;;;;;;;19.27;54.50;98462.50;5117205;28;20228;-90
2023/01/19 10:10:29;;;;;;;7.50;1.77;;;;;;;19.36;54.45;98456.28;5116863;28;20164;-92
2023/01/19 10:13:28;;;;;;;13.10;2.07;;;;;;;19.41;54.14;98448.72;5117156;28;20254;-94
2023/01/19 10:15:56;;;;;;;14.33;1.93;;;;;;;19.41;53.68;98438.09;5117560;28;20174;-92
2023/01/19 10:18:32;;;;;;;12.83;2.53;;;;;;;19.67;53.15;98438.13;5116882;28;20720;-92
2023/01/19 10:21:11;;;;;;;14.10;1.87;;;;;;;19.67;52.17;98438.97;5099202;28;20187;-95
2023/01/19 10:24:02;;;;;;;12.20;2.13;;;;;;;19.73;52.06;98424.22;5099039;28;20263;-91
2023/01/19 10:26:40;;;;;;;16.60;1.80;;;;;;;19.99;51.58;98430.38;5099161;28;20179;-92
2023/01/19 10:29:26;;;;;;;13.00;2.00;;;;;;;19.85;51.03;98409.66;5099460;28;20190;-91
2023/01/19 10:32:06;;;;;;;10.67;2.40;;;;;;;19.83;51.57;98430.28;5098876;28;20168;-92
2023/01/19 10:34:31;;;;;;;15.93;2.40;;;;;;;19.85;51.43;98418.47;5098718;28;20171;-93
2023/01/19 10:37:06;;;;;;;4.47;2.00;;;;;;;19.82;50.67;98425.94;5116842;28;20181;-92
2023/01/19 10:39:37;;;;;;;11.90;2.20;;;;;;;19.74;51.18;98424.06;5098522;28;20573;-91
2023/01/19 10:42:04;;;;;;;10.07;1.57;;;;;;;19.57;51.50;98423.09;5117502;28;20164;-94
2023/01/19 10:44:36;;;;;;;8.73;1.73;;;;;;;19.81;51.17;98416.31;5082948;28;20192;-94
2023/01/19 10:47:12;;;;;;;7.37;1.57;;;;;;;20.06;50.54;98418.13;5098677;28;20176;-96
2023/01/19 10:49:42;;;;;;;3.53;1.33;;;;;;;20.15;49.54;98418.00;5098395;28;20171;-92
2023/01/19 10:52:35;;;;;;;6.63;2.23;;;;;;;20.20;49.21;98418.34;5116570;28;20185;-91
2023/01/19 10:55:06;;;;;;;12.80;2.43;;;;;;;20.18;49.57;98420.34;5117109;28;20160;-94
2023/01/19 10:57:37;;;;;;;8.50;2.13;;;;;;;20.40;48.94;98440.28;5098113;28;20227;-91
2023/01/19 11:00:08;;;;;;;7.93;2.20;;;;;;;20.41;49.25;98414.50;5116532;28;20202;-92
2023/01/19 11:02:34;;;;;;;10.17;2.03;;;;;;;20.45;49.34;98431.81;5097955;28;20171;-95
2023/01/19 11:05:40;;;;;;;13.30;2.40;;;;;;;20.27;48.70;98421.25;5098190;28;20191;-93
2023/01/19 11:08:36;;;;;;;16.83;2.03;;;;;;;20.16;nan;98438.28;5097995;28;20171;-92
2023/01/19 11:11:12;;;;;;;9.67;2.13;;;;;;;20.28;49.36;98440.72;5116348;28;20190;-93
2023/01/19 11:13:44;;;;;;;12.73;1.37;;;;;;;20.33;48.41;98427.78;5116134;28;20174;-92
2023/01/19 11:16:27;;;;;;;11.97;2.63;;;;;;;20.28;48.32;98430.09;5115586;28;20169;-90
2023/01/19 11:18:56;;;;;;;14.00;1.83;;;;;;;20.26;48.46;98424.91;5098217;28;20620;-92
2023/01/19 11:21:26;;;;;;;6.57;1.27;;;;;;;20.38;48.30;98418.31;5097583;28;20203;-91
2023/01/19 11:24:00;;;;;;;16.43;2.33;;;;;;;20.51;47.77;98428.53;5097580;28;20203;-92
2023/01/19 11:26:31;;;;;;;6.30;1.60;;;;;;;20.42;47.57;98421.47;5097349;28;20617;-93
2023/01/19 11:29:02;;;;;;;8.93;1.97;;;;;;;20.22;47.70;98424.38;5097766;28;20186;-95
2023/01/19 11:31:27;;;;;;;6.33;0.83;;;;;;;20.32;48.12;98416.28;5115547;28;20549;-94
2023/01/19 11:33:56;;;;;;;4.73;1.33;;;;;;;20.60;47.31;98432.88;5115458;28;20255;-92
2023/01/19 11:36:25;;;;;;;5.90;1.83;;;;;;;20.55;47.21;98425.38;5115202;28;20172;-92
2023/01/19 11:38:55;;;;;;;5.70;1.23;;;;;;;20.29;47.37;98423.75;5115765;28;20180;-92
2023/01/19 11:41:26;;;;;;;5.43;1.60;;;;;;;20.40;47.46;98404.84;5097451;28;20188;-90
2023/01/19 11:44:08;;;;;;;13.83;1.30;;;;;;;20.30;47.52;98430.75;5098387;28;20172;-91
2023/01/19 11:46:39;;;;;;;7.90;1.83;;;;;;;20.35;46.89;98417.78;5097345;28;20188;-91
2023/01/19 11:49:16;;;;;;;6.60;1.60;;;;;;;20.32;46.93;98420.78;5115372;28;20256;-92
2023/01/19 11:52:27;;;;;;;10.90;1.30;;;;;;;19.94;47.60;98392.78;5115494;28;20200;-91
2023/01/19 11:55:18;;;;;;;5.80;1.50;;;;;;;19.87;48.61;98392.56;5096978;28;20667;-92
2023/01/19 11:58:01;;;;;;;5.53;1.60;;;;;;;19.68;48.47;98386.63;5114353;28;20255;-90
2023/01/19 12:01:05;;;;;;;9.90;1.23;;;;;;;19.75;48.29;98377.88;5115351;28;20187;-91
2023/01/19 12:03:45;;;;;;;9.13;1.20;;;;;;;19.87;47.95;98386.41;5096504;28;20229;-91
2023/01/19 12:06:41;;;;;;;9.30;1.70;;;;;;;19.75;47.90;98407.13;5097197;28;20605;-93
2023/01/19 12:10:03;;;;;;;;;;;;;;;;;;;;;
2023/01/19 12:12:34;;;;;;;13.37;1.07;;;;;;;19.90;46.84;98404.72;5014476;28;20169;-93
2023/01/19 12:15:17;;;;;;;4.00;1.17;;;;;;;20.01;47.22;98410.59;4996971;28;20190;-92
2023/01/19 12:17:50;;;;;;;13.47;1.67;;;;;;;19.81;47.01;98410.97;5071061;28;20253;-91
2023/01/19 12:20:37;;;;;;;9.93;1.20;;;;;;;19.80;46.89;98388.88;5097899;28;20538;-91
2023/01/19 12:23:21;;;;;;;6.87;1.60;;;;;;;19.92;47.03;98384.94;5097233;28;20175;-91
2023/01/19 12:26:21;;;;;;;4.23;1.30;;;;;;;20.01;47.31;98384.00;5115229;28;20194;-92
2023/01/19 12:28:50;;;;;;;7.03;1.17;;;;;;;20.00;47.28;98385.00;5096024;28;20194;-92
2023/01/19 12:31:20;;;;;;;5.43;1.70;;;;;;;20.17;46.09;98386.75;5096648;28;20183;-94
2023/01/19 12:33:46;;;;;;;7.37;1.13;;;;;;;20.27;46.13;98401.78;5097111;28;20171;-91
2023/01/19 12:36:40;;;;;;;5.77;1.97;;;;;;;20.21;46.10;98396.06;5114843;28;20174;-90
2023/01/19 12:39:34;;;;;;;6.20;1.10;;;;;;;20.37;46.19;98382.03;5097800;28;20171;-96
2023/01/19 12:42:15;;;;;;;10.87;1.50;;;;;;;20.39;44.86;98387.22;5098013;28;20675;-93
2023/01/19 12:45:30;;;;;;;7.50;1.67;;;;;;;20.51;45.42;98391.25;5115208;28;20156;-96
2023/01/19 12:48:22;;;;;;;4.33;1.20;;;;;;;20.52;44.79;98398.25;5033202;28;20240;-95
2023/01/19 12:50:58;;;;;;;9.77;2.27;;;;;;;20.36;45.57;98403.50;5059218;28;20188;-91
2023/01/19 12:53:32;;;;;;;4.17;1.17;;;;;;;20.17;45.77;98394.75;5097378;28;20194;-93
2023/01/19 12:56:05;;;;;;;9.90;1.83;;;;;;;20.05;46.51;98384.50;5096845;28;20251;-91
2023/01/19 12:58:36;;;;;;;6.63;1.37;;;;;;;19.80;46.67;98393.34;5114933;28;20624;-91
2023/01/19 13:04:29;;;;;;;8.27;1.40;;;;;;;19.84;47.09;98406.16;5114624;28;20620;-94
2023/01/19 13:07:04;;;;;;;12.70;2.40;;;;;;;20.09;46.72;98408.00;5114723;28;20188;-93
2023/01/19 13:10:20;;;;;;;10.73;1.90;;;;;;;20.26;46.14;98410.78;5095966;28;20212;-90
2023/01/19 13:13:27;;;;;;;7.50;1.20;;;;;;;20.35;46.12;98401.81;5112619;28;20179;-94
2023/01/19 13:16:27;;;;;;;9.00;1.67;;;;;;;20.44;45.84;98392.91;5007846;28;20186;-94
2023/01/19 13:22:31;;;;;;;7.90;1.17;;;;;;;20.06;45.82;98418.94;5040661;28;20193;-93
2023/01/19 13:25:09;;;;;;;5.10;2.07;;;;;;;19.85;46.63;98407.84;5061917;28;20191;-93
2023/01/19 13:27:50;;;;;;;6.23;1.93;;;;;;;19.94;46.44;98404.22;5118193;28;20179;-93
2023/01/19 13:30:18;;;;;;;3.17;1.07;;;;;;;19.95;45.76;98405.06;5117776;28;20186;-89
2023/01/19 13:32:44;;;;;;;9.97;1.37;;;;;;;20.04;46.00;98414.78;5099549;28;20207;-90
2023/01/19 13:35:27;;;;;;;11.67;1.40;;;;;;;20.19;45.22;98407.88;5099592;28;20186;-92
2023/01/19 13:37:57;;;;;;;10.07;1.30;;;;;;;20.14;44.92;98421.66;5099707;28;20537;-90
2023/01/19 13:40:29;;;;;;;5.40;0.90;;;;;;;19.94;45.53;98392.78;5095912;28;20239;-91
2023/01/19 13:43:19;;;;;;;4.37;1.23;;;;;;;20.15;45.38;98383.41;5099644;28;20182;-94
2023/01/19 13:45:51;;;;;;;8.10;1.30;;;;;;;20.02;45.60;98396.28;5100469;28;20263;-93
2023/01/19 13:48:21;;;;;;;6.13;0.97;;;;;;;20.34;44.98;98400.16;5100182;28;20197;-93
2023/01/19 13:51:15;;;;;;;4.60;0.87;;;;;;;20.20;45.17;98396.25;5099330;28;20534;-94
2023/01/19 13:53:52;;;;;;;6.30;1.60;;;;;;;19.82;45.86;98415.28;5117679;28;20296;-91
2023/01/19 13:56:23;;;;;;;3.70;1.10;;;;;;;19.71;45.97;98403.09;5099945;28;20175;-89
2023/01/19 13:59:01;;;;;;;8.80;1.17;;;;;;;19.51;45.89;98417.56;5099735;28;20259;-92
2023/01/19 14:01:26;;;;;;;6.87;1.23;;;;;;;19.35;46.00;98406.75;5099668;28;20199;-89
2023/01/19 14:04:01;;;;;;;7.53;0.80;;;;;;;19.35;46.76;98426.19;5099397;28;20616;-92
2023/01/19 14:06:54;;;;;;;6.33;1.30;;;;;;;19.42;46.79;98402.53;5117608;28;20162;-92
2023/01/19 14:09:31;;;;;;;4.40;0.97;;;;;;;19.48;47.07;98412.56;5099642;28;20194;-93
2023/01/19 14:12:16;;;;;;;7.17;1.07;;;;;;;19.44;47.13;98396.06;5117306;28;20175;-91
2023/01/19 14:14:48;;;;;;;3.77;0.90;;;;;;;19.45;46.66;98403.06;5098368;28;20187;-93